Time;durP1;ratioP1;P1;durP2;ratioP2;P2;SDS_P1;SDS_P2;PMS_P1;PMS_P2;Temp;Humidity;BMP_temperature;BMP_pressure;BME280_temperature;BME280_humidity;BME280_pressure;Samples;Min_cycle;Max_cycle;Signal;HPM_P1;HPM_P2
2023/04/04 00:01:02;;;;;;;4.45;2.75;;;;;;;-1.77;100.00;103163.88;5115273;28;20099;-72
2023/04/04 00:03:27;;;;;;;5.10;3.15;;;;;;;-1.81;100.00;103170.88;5115101;28;20161;-72
2023/04/04 00:05:53;;;;;;;4.45;2.80;;;;;;;-1.84;100.00;103168.22;5114953;28;20046;-72
2023/04/04 00:08:18;;;;;;;5.75;3.00;;;;;;;-1.87;100.00;103162.16;5115275;28;20472;-72
2023/04/04 00:10:43;;;;;;;6.95;3.40;;;;;;;-1.91;100.00;103156.09;5114455;28;20038;-72
2023/04/04 00:13:09;;;;;;;6.93;3.83;;;;;;;-1.93;100.00;103163.03;5114863;28;20050;-71
2023/04/04 00:15:35;;;;;;;8.00;3.63;;;;;;;-1.97;100.00;103159.56;5114688;28;20078;-72
2023/04/04 00:18:02;;;;;;;5.70;3.50;;;;;;;-1.97;100.00;103156.06;5114761;28;20027;-71
2023/04/04 00:20:28;;;;;;;7.95;2.92;;;;;;;-1.99;100.00;103152.59;5096612;28;20042;-72
2023/04/04 00:22:54;;;;;;;3.10;2.80;;;;;;;-2.03;100.00;103153.47;5113979;28;20031;-72
2023/04/04 00:25:19;;;;;;;6.72;3.35;;;;;;;-2.06;100.00;103156.09;5114356;28;20036;-72
2023/04/04 00:27:46;;;;;;;5.72;3.00;;;;;;;-2.07;100.00;103151.75;5114113;28;20028;-73
2023/04/04 00:30:11;;;;;;;7.78;3.25;;;;;;;-2.10;100.00;103149.16;5096546;28;20084;-72
2023/04/04 00:32:37;;;;;;;5.88;2.85;;;;;;;-2.15;100.00;103150.00;5114730;27;20035;-72
2023/04/04 00:35:02;;;;;;;5.15;2.83;;;;;;;-2.17;100.00;103145.66;5113914;28;20101;-72
2023/04/04 00:37:28;;;;;;;5.40;2.90;;;;;;;-2.21;100.00;103151.75;5114317;28;20032;-72
2023/04/04 00:39:53;;;;;;;4.38;2.85;;;;;;;-2.23;100.00;103150.88;5113953;28;20040;-72
2023/04/04 00:42:18;;;;;;;5.10;2.90;;;;;;;-2.25;100.00;103152.63;5114338;28;20036;-72
2023/04/04 00:44:44;;;;;;;6.32;3.53;;;;;;;-2.30;100.00;103147.38;5113359;28;20081;-71
2023/04/04 00:47:10;;;;;;;7.15;3.60;;;;;;;-2.34;100.00;103154.34;5095619;28;20537;-71
2023/04/04 00:49:36;;;;;;;4.97;2.97;;;;;;;-2.35;100.00;103150.00;5114134;28;20111;-72
2023/04/04 00:52:02;;;;;;;7.72;3.00;;;;;;;-2.36;100.00;103150.88;5113771;28;20096;-72
2023/04/04 00:54:29;;;;;;;7.40;3.05;;;;;;;-2.39;100.00;103153.50;5095802;28;20468;-72
2023/04/04 00:56:55;;;;;;;6.72;3.03;;;;;;;-2.42;100.00;103152.59;5113329;28;20477;-72
2023/04/04 00:59:26;;;;;;;5.38;2.83;;;;;;;-2.47;100.00;103160.41;5095577;28;20106;-73
2023/04/04 01:01:52;;;;;;;8.15;3.28;;;;;;;-2.50;100.00;103147.38;5113584;28;20473;-72
2023/04/04 01:04:17;;;;;;;7.13;3.40;;;;;;;-2.54;100.00;103150.84;5113901;28;20080;-72
2023/04/04 01:06:44;;;;;;;6.97;3.67;;;;;;;-2.57;100.00;103141.28;5113421;28;20035;-71
2023/04/04 01:09:11;;;;;;;8.57;3.15;;;;;;;-2.58;100.00;103146.50;5113705;28;20036;-72
2023/04/04 01:11:37;;;;;;;5.80;2.95;;;;;;;-2.63;100.00;103141.28;5095468;28;20429;-72
2023/04/04 01:14:02;;;;;;;8.00;3.08;;;;;;;-2.68;100.00;103128.22;5113044;28;20058;-71
2023/04/04 01:16:27;;;;;;;10.82;3.50;;;;;;;-2.71;100.00;103129.97;5113583;28;20468;-72
2023/04/04 01:18:55;;;;;;;4.97;3.10;;;;;;;-2.73;100.00;103126.47;5113411;28;20112;-71
2023/04/04 01:21:22;;;;;;;7.03;3.53;;;;;;;-2.76;100.00;103139.50;5113569;28;20039;-71
2023/04/04 01:24:03;;;;;;;6.65;3.60;;;;;;;-2.77;100.00;103133.44;5112661;28;20418;-71
2023/04/04 01:26:29;;;;;;;10.43;3.13;;;;;;;-2.79;100.00;103137.78;5113034;28;20031;-72
2023/04/04 01:28:55;;;;;;;4.30;3.03;;;;;;;-2.79;100.00;103136.91;5094458;28;20210;-72
2023/04/04 01:31:27;;;;;;;5.68;3.33;;;;;;;-2.84;100.00;103135.19;5095322;28;20504;-73
2023/04/04 01:34:03;;;;;;;;;;;;;;;-2.89;100.00;103134.28;5113246;28;20035;-72
2023/04/04 01:36:36;;;;;;;4.30;2.63;;;;;;;-2.90;100.00;103136.88;5112863;28;20364;-72
2023/04/04 01:39:16;;;;;;;6.28;3.17;;;;;;;-2.95;100.00;103136.88;5113005;28;20061;-72
2023/04/04 01:41:47;;;;;;;10.85;3.75;;;;;;;-2.98;100.00;103130.78;5113066;28;20020;-72
2023/04/04 01:44:14;;;;;;;4.13;3.08;;;;;;;-3.02;100.00;103135.09;5094841;28;20473;-72
2023/04/04 01:46:40;;;;;;;5.22;3.20;;;;;;;-3.05;100.00;103137.72;5112654;28;20051;-72
2023/04/04 01:49:05;;;;;;;4.85;3.38;;;;;;;-3.09;100.00;103139.44;5112562;28;20034;-72
2023/04/04 01:51:31;;;;;;;5.22;3.05;;;;;;;-3.10;100.00;103137.69;5112969;28;20114;-72
2023/04/04 01:53:57;;;;;;;8.23;3.30;;;;;;;-3.11;100.00;103137.69;5112679;28;20507;-72
2023/04/04 01:56:22;;;;;;;7.85;3.47;;;;;;;-3.11;100.00;103142.91;5112987;28;20027;-71
2023/04/04 01:58:47;;;;;;;6.90;3.92;;;;;;;-3.13;100.00;103137.69;5112813;28;20027;-72
2023/04/04 02:01:13;;;;;;;3.72;2.78;;;;;;;-3.14;100.00;103145.50;5112287;28;20127;-71
2023/04/04 02:03:38;;;;;;;6.07;3.30;;;;;;;-3.15;100.00;103143.75;5112761;28;20023;-72
2023/04/04 02:06:04;;;;;;;5.40;3.22;;;;;;;-3.16;100.00;103145.50;5111723;28;20035;-72
2023/04/04 02:08:29;;;;;;;8.45;3.22;;;;;;;-3.18;100.00;103142.00;5112879;28;20465;-71
2023/04/04 02:10:57;;;;;;;4.75;2.90;;;;;;;-3.22;100.00;103140.25;5112409;28;20027;-70
2023/04/04 02:13:23;;;;;;;4.90;3.00;;;;;;;-3.24;100.00;103139.38;5094922;28;20118;-72
2023/04/04 02:15:50;;;;;;;4.95;3.75;;;;;;;-3.25;100.00;103148.94;5112161;28;20114;-71
2023/04/04 02:18:15;;;;;;;6.40;3.47;;;;;;;-3.25;100.00;103146.31;5111715;28;20467;-71
2023/04/04 02:20:41;;;;;;;5.95;3.80;;;;;;;-3.29;100.00;103144.56;5093838;28;20034;-71
2023/04/04 02:23:06;;;;;;;5.60;2.95;;;;;;;-3.31;100.00;103143.69;5111750;28;20032;-71
2023/04/04 02:25:31;;;;;;;6.55;3.10;;;;;;;-3.34;100.00;103142.78;5112618;28;20070;-72
2023/04/04 02:27:57;;;;;;;5.95;3.90;;;;;;;-3.37;100.00;103147.13;5111938;28;20436;-71
2023/04/04 02:30:22;;;;;;;9.00;3.70;;;;;;;-3.40;100.00;103144.53;5094261;28;20032;-71
2023/04/04 02:32:49;;;;;;;8.75;3.17;;;;;;;-3.40;100.00;103143.66;5094517;28;20123;-72
2023/04/04 02:35:17;;;;;;;5.35;2.90;;;;;;;-3.42;100.00;103137.56;5111685;28;20039;-72
2023/04/04 02:37:45;;;;;;;7.85;3.88;;;;;;;-3.44;100.00;103137.56;5112092;28;20557;-71
2023/04/04 02:40:11;;;;;;;8.18;3.78;;;;;;;-3.43;100.00;103135.84;5111729;28;20028;-71
2023/04/04 02:42:36;;;;;;;5.15;3.30;;;;;;;-3.42;100.00;103137.56;5112001;28;20443;-71
2023/04/04 02:45:02;;;;;;;5.30;3.05;;;;;;;-3.43;100.00;103130.63;5111405;28;20074;-70
2023/04/04 02:47:27;;;;;;;4.32;3.22;;;;;;;-3.44;100.00;103134.94;5112073;28;20075;-71
2023/04/04 02:49:52;;;;;;;10.10;3.42;;;;;;;-3.45;100.00;103129.72;5112030;28;20024;-71
2023/04/04 02:52:19;;;;;;;5.90;3.55;;;;;;;-3.48;100.00;103129.72;5076869;28;20034;-71
2023/04/04 02:54:45;;;;;;;4.45;2.67;;;;;;;-3.49;100.00;103133.19;5093965;28;20492;-71
2023/04/04 02:57:11;;;;;;;5.75;3.05;;;;;;;-3.55;100.00;103116.69;5112065;28;20078;-74
2023/04/04 02:59:37;;;;;;;6.55;3.33;;;;;;;-3.56;100.00;103120.13;5112221;28;20071;-72
2023/04/04 03:02:02;;;;;;;5.57;3.10;;;;;;;-3.60;100.00;103118.41;5111746;28;20123;-72
2023/04/04 03:04:28;;;;;;;6.72;3.17;;;;;;;-3.59;100.00;103114.06;5112086;28;20035;-72
2023/04/04 03:06:53;;;;;;;10.13;3.10;;;;;;;-3.62;100.00;103112.31;5112379;28;20027;-72
2023/04/04 03:09:18;;;;;;;5.90;2.88;;;;;;;-3.61;100.00;103113.19;5111820;28;20556;-72
2023/04/04 03:11:44;;;;;;;7.05;3.28;;;;;;;-3.61;100.00;103127.06;5112002;28;20127;-72
2023/04/04 03:14:09;;;;;;;5.93;3.20;;;;;;;-3.61;100.00;103129.66;5111690;28;20103;-71
2023/04/04 03:16:35;;;;;;;4.65;3.28;;;;;;;-3.61;100.00;103127.06;5111987;28;20028;-72
2023/04/04 03:19:00;;;;;;;6.38;3.35;;;;;;;-3.62;100.00;103129.66;5097072;28;20032;-71
2023/04/04 03:21:26;;;;;;;6.72;3.17;;;;;;;-3.63;100.00;103135.72;5116190;28;20028;-73
2023/04/04 03:23:51;;;;;;;4.45;3.00;;;;;;;-3.67;100.00;103126.13;5116014;28;20027;-72
2023/04/04 03:26:17;;;;;;;5.18;3.05;;;;;;;-3.69;100.00;103123.53;5115554;28;20034;-72
2023/04/04 03:28:42;;;;;;;4.90;3.20;;;;;;;-3.70;100.00;103121.81;5115913;28;20080;-72
2023/04/04 03:31:07;;;;;;;6.03;3.45;;;;;;;-3.71;100.00;103127.88;5115430;28;20467;-72
2023/04/04 03:33:37;;;;;;;4.90;3.13;;;;;;;-3.74;100.00;103133.91;5115856;28;20488;-72
2023/04/04 03:36:08;;;;;;;5.03;3.08;;;;;;;-3.74;100.00;103133.06;5115373;28;20031;-71
2023/04/04 03:38:33;;;;;;;5.95;3.45;;;;;;;-3.73;100.00;103137.41;5115695;28;20019;-72
2023/04/04 03:41:03;;;;;;;4.78;3.22;;;;;;;-3.72;100.00;103139.13;5097522;28;20570;-72
2023/04/04 03:43:29;;;;;;;7.20;3.03;;;;;;;-3.74;100.00;103140.88;5115535;28;20143;-70
2023/04/04 03:45:59;;;;;;;5.55;3.40;;;;;;;-3.76;100.00;103132.19;5115506;28;20122;-72
2023/04/04 03:48:25;;;;;;;11.00;3.53;;;;;;;-3.77;100.00;103133.91;5114858;28;20065;-71
2023/04/04 03:50:50;;;;;;;7.75;3.80;;;;;;;-3.78;100.00;103131.28;5115633;28;20034;-73
2023/04/04 03:53:15;;;;;;;5.63;3.30;;;;;;;-3.80;100.00;103127.81;5115248;28;20415;-72
2023/04/04 03:55:41;;;;;;;9.30;4.20;;;;;;;-3.82;100.00;103127.81;5115356;28;20460;-72
2023/04/04 03:58:06;;;;;;;6.40;3.35;;;;;;;-3.82;100.00;103124.31;5115009;28;20468;-71
2023/04/04 04:00:31;;;;;;;5.15;3.30;;;;;;;-3.85;100.00;103126.91;5115253;28;20028;-72
2023/04/04 04:02:57;;;;;;;7.32;3.78;;;;;;;-3.85;100.00;103126.91;5096875;28;20028;-72
2023/04/04 04:05:23;;;;;;;6.18;3.65;;;;;;;-3.88;100.00;103117.38;5114636;28;20054;-72
2023/04/04 04:07:49;;;;;;;4.68;3.38;;;;;;;-3.90;100.00;103119.97;5115149;28;20078;-72
2023/04/04 04:10:14;;;;;;;4.78;3.33;;;;;;;-3.90;100.00;103116.47;5114752;28;20063;-72
2023/04/04 04:12:40;;;;;;;7.78;3.45;;;;;;;-3.91;100.00;103123.41;5115014;28;20038;-72
2023/04/04 04:15:06;;;;;;;9.88;4.15;;;;;;;-3.91;100.00;103120.81;5114921;28;20088;-72
2023/04/04 04:17:31;;;;;;;7.53;4.00;;;;;;;-3.91;100.00;103126.03;5114942;28;20035;-72
2023/04/04 04:19:57;;;;;;;8.48;3.97;;;;;;;-3.92;100.00;103123.41;5115001;28;20058;-72
2023/04/04 04:22:22;;;;;;;7.07;4.63;;;;;;;-3.94;100.00;103118.19;5114486;28;20031;-72
2023/04/04 04:24:48;;;;;;;7.53;3.83;;;;;;;-3.96;100.00;103125.09;5096487;28;20397;-72
2023/04/04 04:27:13;;;;;;;6.45;3.80;;;;;;;-3.97;100.00;103123.38;5096097;28;20028;-71
2023/04/04 04:29:38;;;;;;;7.03;3.60;;;;;;;-3.97;100.00;103125.09;5095937;28;20027;-72
2023/04/04 04:32:04;;;;;;;5.32;3.72;;;;;;;-4.00;100.00;103125.97;5114683;28;20084;-72
2023/04/04 04:34:29;;;;;;;14.70;3.95;;;;;;;-4.01;100.00;103125.94;5114152;28;20031;-71
2023/04/04 04:36:54;;;;;;;6.18;3.92;;;;;;;-4.04;100.00;103125.94;5114698;28;20069;-72
2023/04/04 04:39:20;;;;;;;8.02;3.53;;;;;;;-4.05;100.00;103126.78;5114321;28;20089;-71
2023/04/04 04:41:45;;;;;;;7.40;4.03;;;;;;;-4.09;100.00;103128.47;5114388;28;20027;-72
2023/04/04 04:44:11;;;;;;;10.23;4.20;;;;;;;-4.10;100.00;103125.00;5113799;28;20090;-70
2023/04/04 04:46:36;;;;;;;8.30;3.92;;;;;;;-4.12;100.00;103124.13;5114331;28;20058;-71
2023/04/04 04:49:01;;;;;;;6.15;4.40;;;;;;;-4.14;100.00;103133.63;5114464;28;20047;-72
2023/04/04 04:51:27;;;;;;;7.00;3.75;;;;;;;-4.15;100.00;103131.91;5113850;28;20146;-71
2023/04/04 04:53:52;;;;;;;13.88;4.60;;;;;;;-4.15;100.00;103139.72;5114180;28;20074;-71
2023/04/04 04:56:17;;;;;;;13.48;4.75;;;;;;;-4.17;100.00;103131.03;5113756;28;20036;-71
2023/04/04 04:58:44;;;;;;;6.60;3.83;;;;;;;-4.18;100.00;103121.50;5114345;28;20031;-71
2023/04/04 05:01:09;;;;;;;6.55;3.78;;;;;;;-4.18;100.00;103128.41;5113856;28;20043;-72
2023/04/04 05:03:35;;;;;;;7.38;4.20;;;;;;;-4.18;100.00;103131.00;5095435;28;20024;-71
2023/04/04 05:06:00;;;;;;;5.57;3.90;;;;;;;-4.19;100.00;103130.16;5095958;28;20043;-71
2023/04/04 05:08:26;;;;;;;11.85;4.25;;;;;;;-4.18;100.00;103133.59;5113599;28;20063;-71
2023/04/04 05:10:53;;;;;;;8.27;4.70;;;;;;;-4.17;100.00;103135.34;5114046;28;20035;-72
2023/04/04 05:13:19;;;;;;;6.53;4.57;;;;;;;-4.17;100.00;103145.75;5113449;28;20054;-71
2023/04/04 05:15:45;;;;;;;8.63;4.25;;;;;;;-4.19;100.00;103148.34;5113699;28;20393;-72
2023/04/04 05:18:11;;;;;;;5.95;4.38;;;;;;;-4.18;100.00;103155.31;5114018;28;20031;-72
2023/04/04 05:20:36;;;;;;;7.18;4.72;;;;;;;-4.16;100.00;103152.72;5113431;28;20556;-71
2023/04/04 05:23:01;;;;;;;6.80;4.50;;;;;;;-4.15;100.00;103150.13;5113629;28;20039;-72
2023/04/04 05:25:27;;;;;;;9.40;4.90;;;;;;;-4.15;100.00;103147.53;5094865;28;20038;-71
2023/04/04 05:27:54;;;;;;;6.95;4.75;;;;;;;-4.13;100.00;103147.53;5113592;28;20042;-71
2023/04/04 05:30:20;;;;;;;8.80;4.90;;;;;;;-4.14;100.00;103150.97;5113235;28;20043;-71
2023/04/04 05:32:45;;;;;;;7.88;4.63;;;;;;;-4.11;100.00;103145.81;5113585;28;20071;-71
2023/04/04 05:35:11;;;;;;;7.00;4.95;;;;;;;-4.10;100.00;103153.63;5095343;28;20490;-72
2023/04/04 05:37:40;;;;;;;9.18;4.93;;;;;;;-4.08;100.00;103159.69;5113837;28;20038;-71
2023/04/04 05:40:06;;;;;;;10.23;5.10;;;;;;;-4.05;100.00;103165.78;5114273;28;20532;-71
2023/04/04 05:42:31;;;;;;;10.95;4.75;;;;;;;-4.02;100.00;103158.88;5095382;28;20044;-70
2023/04/04 05:44:57;;;;;;;8.05;4.68;;;;;;;-3.97;100.00;103156.31;5113634;28;20092;-71
2023/04/04 05:47:22;;;;;;;8.40;4.68;;;;;;;-3.93;100.00;103152.88;5112826;28;20113;-70
2023/04/04 05:49:47;;;;;;;9.82;5.20;;;;;;;-3.88;100.00;103160.72;5113278;28;20080;-71
2023/04/04 05:52:13;;;;;;;6.45;4.90;;;;;;;-3.83;100.00;103156.41;5094751;28;20027;-71
2023/04/04 05:54:38;;;;;;;10.25;5.20;;;;;;;-3.74;100.00;103156.47;5112645;28;20036;-71
2023/04/04 05:57:03;;;;;;;6.90;4.20;;;;;;;-3.67;100.00;103162.56;5112986;28;20027;-70
2023/04/04 05:59:29;;;;;;;10.10;4.38;;;;;;;-3.59;100.00;103155.69;5112455;28;20028;-72
2023/04/04 06:01:54;;;;;;;9.88;4.82;;;;;;;-3.48;100.00;103159.22;5113060;28;20101;-71
2023/04/04 06:04:20;;;;;;;8.07;5.72;;;;;;;-3.38;100.00;103153.19;5112570;28;20518;-68
2023/04/04 06:06:45;;;;;;;7.47;4.60;;;;;;;-3.25;100.00;103145.47;5094842;28;20546;-72
2023/04/04 06:09:11;;;;;;;9.52;5.65;;;;;;;-3.13;100.00;103148.09;5112964;28;20455;-71
2023/04/04 06:11:36;;;;;;;10.55;5.50;;;;;;;-2.99;100.00;103149.88;5112198;28;20519;-71
2023/04/04 06:14:01;;;;;;;8.43;4.93;;;;;;;-2.88;100.00;103155.97;5112342;28;20072;-71
2023/04/04 06:16:27;;;;;;;7.38;5.10;;;;;;;-2.75;100.00;103157.75;5111888;28;20080;-71
2023/04/04 06:18:52;;;;;;;9.05;5.45;;;;;;;-2.63;100.00;103151.69;5094659;28;20389;-70
2023/04/04 06:21:17;;;;;;;7.97;5.07;;;;;;;-2.50;100.00;103144.78;5112422;28;20047;-70
2023/04/04 06:23:43;;;;;;;8.55;5.18;;;;;;;-2.37;100.00;103150.88;5112366;28;20390;-70
2023/04/04 06:26:09;;;;;;;7.13;5.32;;;;;;;-2.21;100.00;103154.34;5112593;28;20081;-71
2023/04/04 06:28:35;;;;;;;9.23;6.47;;;;;;;-2.06;100.00;103156.97;5112015;28;20489;-68
2023/04/04 06:31:04;;;;;;;13.18;5.80;;;;;;;-1.90;100.00;103157.81;5112467;28;20028;-69
2023/04/04 06:33:29;;;;;;;9.43;5.47;;;;;;;-1.72;100.00;103159.50;5112237;28;20034;-69
2023/04/04 06:35:54;;;;;;;9.30;5.80;;;;;;;-1.55;100.00;103154.28;5112310;28;20043;-68
2023/04/04 06:38:20;;;;;;;13.55;5.80;;;;;;;-1.41;100.00;103156.84;5112842;28;20036;-70
2023/04/04 06:40:45;;;;;;;11.77;5.90;;;;;;;-1.25;100.00;103147.22;5112048;28;20032;-72
2023/04/04 06:43:11;;;;;;;9.98;5.55;;;;;;;-1.12;100.00;103146.28;5112155;28;20028;-71
2023/04/04 06:45:36;;;;;;;9.77;6.07;;;;;;;-0.97;100.00;103145.34;5105192;28;20040;-69
2023/04/04 06:48:02;;;;;;;9.95;6.00;;;;;;;-0.83;100.00;103132.19;5089372;28;20032;-71
2023/04/04 06:50:32;;;;;;;9.20;6.15;;;;;;;-0.68;100.00;103136.44;5088437;28;20063;-69
2023/04/04 06:53:00;;;;;;;10.80;6.30;;;;;;;-0.52;100.00;103144.19;5093591;28;20032;-72
2023/04/04 06:55:27;;;;;;;13.20;5.15;;;;;;;-0.37;100.00;103147.56;5093121;28;20102;-71
2023/04/04 06:57:52;;;;;;;10.52;5.20;;;;;;;-0.23;100.00;103146.59;5092986;28;20092;-70
2023/04/04 07:00:18;;;;;;;12.15;5.47;;;;;;;-0.08;100.00;103154.28;5093455;28;20419;-72
2023/04/04 07:02:43;;;;;;;7.72;4.65;;;;;;;0.09;100.00;103155.88;5092897;28;20039;-69
2023/04/04 07:05:09;;;;;;;7.15;4.70;;;;;;;0.21;100.00;103152.28;5093148;28;20116;-68
2023/04/04 07:07:35;;;;;;;7.10;4.65;;;;;;;0.34;100.00;103165.25;5093129;28;20039;-72
2023/04/04 07:10:00;;;;;;;8.38;4.80;;;;;;;0.42;100.00;103162.56;5092955;28;20059;-72
2023/04/04 07:12:25;;;;;;;15.27;5.70;;;;;;;0.56;100.00;103165.00;5093008;28;20093;-72
2023/04/04 07:14:51;;;;;;;7.50;4.63;;;;;;;0.70;100.00;103167.47;5092694;28;20495;-72
2023/04/04 07:17:16;;;;;;;10.27;5.35;;;;;;;0.80;100.00;103165.63;5093135;28;20527;-70
2023/04/04 07:19:42;;;;;;;10.52;4.78;;;;;;;0.88;100.00;103172.50;5092707;28;20036;-70
2023/04/04 07:22:07;;;;;;;9.77;4.57;;;;;;;0.97;100.00;103171.53;5092689;28;20461;-69
2023/04/04 07:24:32;;;;;;;10.40;5.28;;;;;;;1.03;100.00;103175.78;5092579;28;20060;-70
2023/04/04 07:26:58;;;;;;;11.88;5.40;;;;;;;1.08;100.00;103176.63;5092576;28;20028;-72
2023/04/04 07:29:23;;;;;;;7.40;5.03;;;;;;;1.15;100.00;103174.75;5058083;28;20070;-71
2023/04/04 07:31:49;;;;;;;10.50;5.43;;;;;;;1.22;100.00;103168.56;5092390;28;20517;-70
2023/04/04 07:34:15;;;;;;;12.75;5.10;;;;;;;1.31;100.00;103173.66;5092332;28;20040;-68
2023/04/04 07:36:41;;;;;;;9.20;5.45;;;;;;;1.36;100.00;103165.75;5092250;28;20358;-69
2023/04/04 07:39:06;;;;;;;11.07;5.38;;;;;;;1.36;100.00;103171.84;5092665;28;20039;-70
2023/04/04 07:41:32;;;;;;;8.65;5.18;;;;;;;1.42;100.00;103173.53;5092468;28;20039;-70
2023/04/04 07:43:57;;;;;;;10.93;5.72;;;;;;;1.53;100.00;103174.22;5092142;28;20032;-71
2023/04/04 07:46:23;;;;;;;7.38;5.20;;;;;;;1.63;100.00;103182.84;5091790;28;20048;-72
2023/04/04 07:48:49;;;;;;;5.85;4.88;;;;;;;1.74;100.00;103174.78;5092033;28;20591;-70
2023/04/04 07:51:14;;;;;;;9.52;5.22;;;;;;;1.87;100.00;103168.44;5092245;28;20055;-71
2023/04/04 07:53:40;;;;;;;9.02;5.10;;;;;;;2.01;100.00;103162.94;5073720;28;20451;-71
2023/04/04 07:56:06;;;;;;;9.50;5.03;;;;;;;2.31;100.00;103163.28;5092233;28;20032;-72
2023/04/04 07:58:32;;;;;;;5.82;4.22;;;;;;;2.68;100.00;103164.34;5091725;28;20036;-71
2023/04/04 08:00:58;;;;;;;9.35;5.10;;;;;;;3.03;100.00;103163.63;5091971;28;20063;-71
2023/04/04 08:03:24;;;;;;;9.80;5.45;;;;;;;3.33;100.00;103153.31;5091219;28;20116;-70
2023/04/04 08:05:50;;;;;;;10.60;5.18;;;;;;;3.69;100.00;103158.59;5091587;28;20165;-70
2023/04/04 08:08:15;;;;;;;10.15;4.78;;;;;;;4.13;100.00;103153.94;5092110;28;20054;-70
2023/04/04 08:10:40;;;;;;;8.90;4.75;;;;;;;4.65;100.00;103148.16;5072937;28;20032;-70
2023/04/04 08:13:07;;;;;;;10.73;4.60;;;;;;;5.19;100.00;103149.19;5092095;28;20085;-70
2023/04/04 08:15:33;;;;;;;9.73;4.60;;;;;;;6.10;100.00;103140.97;5091877;28;20028;-69
2023/04/04 08:17:58;;;;;;;6.32;4.32;;;;;;;6.89;92.09;103141.63;5091469;28;20062;-69
2023/04/04 08:20:23;;;;;;;10.25;4.70;;;;;;;7.36;83.20;103146.84;5092160;28;20032;-68
2023/04/04 08:22:49;;;;;;;6.25;4.28;;;;;;;7.52;71.67;103140.91;5091430;28;20346;-68
2023/04/04 08:25:14;;;;;;;8.88;4.10;;;;;;;7.38;67.34;103144.97;5091525;28;20404;-69
2023/04/04 08:27:42;;;;;;;7.63;3.85;;;;;;;7.52;74.34;103144.41;5091451;28;20514;-67
2023/04/04 08:30:08;;;;;;;5.28;3.60;;;;;;;7.47;68.39;103138.47;5091659;28;20063;-68
2023/04/04 08:32:33;;;;;;;9.20;3.88;;;;;;;7.40;76.85;103135.22;5091664;28;20121;-70
2023/04/04 08:34:59;;;;;;;9.75;3.78;;;;;;;7.37;70.22;103139.75;5090478;28;20028;-70
2023/04/04 08:37:24;;;;;;;7.50;3.67;;;;;;;7.30;72.55;103133.84;5091653;28;20036;-71
2023/04/04 08:39:50;;;;;;;5.97;3.25;;;;;;;7.20;63.77;103130.69;5091202;28;20036;-72
2023/04/04 08:42:19;;;;;;;7.68;3.47;;;;;;;7.21;64.58;103129.78;5091238;28;20439;-72
2023/04/04 08:44:46;;;;;;;4.93;2.97;;;;;;;7.19;57.54;103128.09;5091067;28;20085;-71
2023/04/04 08:47:15;;;;;;;5.95;3.00;;;;;;;7.42;63.75;103129.84;5090886;28;20055;-71
2023/04/04 08:49:42;;;;;;;8.40;3.05;;;;;;;7.62;58.26;103139.63;5073436;28;20119;-71
2023/04/04 08:52:11;;;;;;;7.25;2.83;;;;;;;8.14;58.22;103139.19;5091261;28;20036;-71
2023/04/04 08:54:38;;;;;;;8.30;3.55;;;;;;;8.78;56.21;103138.13;5090896;28;20040;-71
2023/04/04 08:57:04;;;;;;;5.78;3.67;;;;;;;9.39;51.85;103144.09;5090421;28;20104;-70
2023/04/04 08:59:30;;;;;;;3.63;2.75;;;;;;;9.94;46.60;103137.81;5091041;28;20028;-71
2023/04/04 09:02:03;;;;;;;5.72;3.03;;;;;;;11.22;45.46;103136.25;5072687;28;20338;-71
2023/04/04 09:04:30;;;;;;;5.63;2.85;;;;;;;12.28;41.53;103134.50;5072873;28;20024;-70
2023/04/04 09:06:56;;;;;;;4.25;2.60;;;;;;;13.09;40.41;103135.66;5090730;28;20036;-70
2023/04/04 09:09:23;;;;;;;9.50;3.10;;;;;;;13.99;37.81;103121.72;5095027;28;20031;-70
2023/04/04 09:11:50;;;;;;;5.28;2.60;;;;;;;14.28;36.06;103125.06;5106448;28;20372;-70
2023/04/04 09:14:18;;;;;;;7.35;3.20;;;;;;;14.23;36.46;103128.06;5112754;28;20024;-71
2023/04/04 09:16:43;;;;;;;6.20;2.45;;;;;;;14.27;35.31;103134.03;5113264;28;20156;-70
2023/04/04 09:19:08;;;;;;;4.28;2.47;;;;;;;14.05;35.40;103127.53;5113245;28;20106;-69
2023/04/04 09:21:34;;;;;;;5.22;2.75;;;;;;;14.71;36.38;103122.03;5113606;28;20035;-69
2023/04/04 09:24:01;;;;;;;5.07;2.50;;;;;;;15.41;35.04;103125.00;5112994;28;20039;-68
2023/04/04 09:26:26;;;;;;;3.92;2.35;;;;;;;15.91;34.83;103122.13;5113694;28;20039;-70
2023/04/04 09:28:52;;;;;;;4.05;2.35;;;;;;;15.94;32.92;103127.25;5095219;28;20390;-70
2023/04/04 09:31:18;;;;;;;4.97;2.53;;;;;;;16.21;31.53;103119.75;5113595;28;20425;-70
2023/04/04 09:33:43;;;;;;;3.15;2.35;;;;;;;16.78;32.13;103117.03;5113490;28;20110;-71
2023/04/04 09:36:11;;;;;;;4.50;2.55;;;;;;;16.55;30.47;103118.88;5112990;28;20158;-70
2023/04/04 09:38:39;;;;;;;6.28;2.65;;;;;;;16.28;33.31;103125.47;5113232;28;20027;-70
2023/04/04 09:41:08;;;;;;;6.80;2.85;;;;;;;16.11;31.88;103125.94;5112999;28;20089;-70
2023/04/04 09:43:34;;;;;;;4.47;2.50;;;;;;;16.56;30.88;103120.59;5113380;28;20465;-72
2023/04/04 09:46:00;;;;;;;4.43;2.63;;;;;;;16.83;32.05;103120.19;5112810;28;20036;-70
2023/04/04 09:48:29;;;;;;;4.68;2.40;;;;;;;16.98;30.79;103117.28;5112921;28;20043;-70
2023/04/04 09:50:57;;;;;;;3.97;2.17;;;;;;;17.19;29.69;103126.25;5094353;28;20032;-70
2023/04/04 09:53:22;;;;;;;6.97;2.65;;;;;;;17.14;30.61;103123.09;5113337;28;20057;-71
2023/04/04 09:55:50;;;;;;;5.05;2.63;;;;;;;17.59;29.93;103128.28;5113155;28;20032;-70
2023/04/04 09:58:17;;;;;;;7.68;2.80;;;;;;;18.10;28.30;103120.44;5112898;28;20093;-70
2023/04/04 10:00:47;;;;;;;5.05;2.40;;;;;;;18.08;28.29;103115.19;5112977;28;20116;-70
2023/04/04 10:03:16;;;;;;;8.23;2.30;;;;;;;17.98;29.67;103112.44;5112605;28;20031;-70
2023/04/04 10:05:44;;;;;;;4.90;2.50;;;;;;;17.60;26.99;103112.97;5112778;28;20032;-69
2023/04/04 10:08:14;;;;;;;5.72;2.60;;;;;;;17.55;29.61;103110.69;5112639;28;20035;-71
2023/04/04 10:10:50;;;;;;;5.13;2.53;;;;;;;17.71;28.56;103109.41;5113101;28;20027;-71
2023/04/04 10:13:24;;;;;;;5.30;2.38;;;;;;;17.91;28.68;103116.63;5112562;28;20027;-67
2023/04/04 10:15:51;;;;;;;3.60;2.40;;;;;;;17.38;28.34;103117.50;5112661;28;20114;-68
2023/04/04 10:18:18;;;;;;;4.60;2.60;;;;;;;17.51;29.01;103116.47;5112167;28;20032;-68
2023/04/04 10:20:45;;;;;;;6.70;2.88;;;;;;;17.32;28.86;103109.09;5094822;28;20061;-68
2023/04/04 10:23:13;;;;;;;4.55;2.42;;;;;;;17.55;29.27;103109.84;5112194;28;20031;-68
2023/04/04 10:25:38;;;;;;;5.03;3.00;;;;;;;17.50;28.56;103115.63;5112417;28;20441;-68
2023/04/04 10:28:03;;;;;;;4.35;2.55;;;;;;;17.86;29.18;103107.22;5093987;28;20031;-68
2023/04/04 10:30:32;;;;;;;4.97;2.83;;;;;;;18.23;28.13;103107.59;5112146;28;20027;-68
2023/04/04 10:33:11;;;;;;;6.43;3.00;;;;;;;18.16;28.58;103111.81;5113100;28;20199;-68
2023/04/04 10:35:39;;;;;;;6.72;2.90;;;;;;;17.87;27.83;103106.22;5112642;28;20039;-68
2023/04/04 10:38:07;;;;;;;6.78;2.60;;;;;;;17.88;30.33;103105.25;5112139;28;20499;-67
2023/04/04 10:40:38;;;;;;;5.95;2.67;;;;;;;17.95;28.80;103099.22;5112558;28;20514;-67
2023/04/04 10:43:08;;;;;;;6.43;2.90;;;;;;;17.72;30.06;103090.44;5111964;28;20536;-67
2023/04/04 10:45:39;;;;;;;6.47;2.95;;;;;;;18.22;28.41;103087.03;5112688;28;20040;-67
2023/04/04 10:48:07;;;;;;;5.10;2.67;;;;;;;17.75;30.85;103090.16;5094395;28;20113;-68
2023/04/04 10:50:34;;;;;;;8.40;3.22;;;;;;;18.03;30.43;103081.56;5112551;28;20458;-69
2023/04/04 10:53:02;;;;;;;5.65;2.83;;;;;;;18.34;28.39;103074.31;5112040;28;20046;-68
2023/04/04 10:55:28;;;;;;;5.35;3.00;;;;;;;18.28;29.61;103078.41;5112437;28;20032;-68
2023/04/04 10:57:55;;;;;;;5.85;2.80;;;;;;;17.95;28.17;103074.16;5112272;28;20077;-68
2023/04/04 11:00:25;;;;;;;6.20;2.80;;;;;;;18.08;28.02;103065.84;5112170;28;20028;-71
2023/04/04 11:02:58;;;;;;;5.57;2.80;;;;;;;18.48;29.58;103075.75;5112499;28;20032;-70
2023/04/04 11:05:46;;;;;;;7.72;2.80;;;;;;;18.29;29.29;103076.56;5112199;28;20032;-69
2023/04/04 11:08:23;;;;;;;6.68;3.28;;;;;;;18.25;28.91;103065.19;5111784;28;20028;-71
2023/04/04 11:10:50;;;;;;;5.35;2.72;;;;;;;18.72;29.32;103059.25;5112752;28;20038;-71
2023/04/04 11:13:26;;;;;;;7.10;2.60;;;;;;;18.95;27.88;103057.16;5111882;28;20058;-71
2023/04/04 11:15:59;;;;;;;5.00;2.63;;;;;;;19.08;29.19;103051.50;5112138;28;20023;-69